sensor_id;sensor_type;location;lat;lon;timestamp;pressure;altitude;pressure_sealevel;temperature;humidity
56160;BME280;42043;46.052;13.612;2022-08-05T00:01:10;100478.34;;;23.78;87.59
56160;BME280;42043;46.052;13.612;2022-08-05T00:03:37;100484.16;;;23.59;88.93
56160;BME280;42043;46.052;13.612;2022-08-05T00:06:03;100482.41;;;23.80;85.76
56160;BME280;42043;46.052;13.612;2022-08-05T00:08:29;100486.22;;;23.84;85.66
56160;BME280;42043;46.052;13.612;2022-08-05T00:10:58;100485.28;;;23.26;88.30
56160;BME280;42043;46.052;13.612;2022-08-05T00:13:25;100479.63;;;24.18;83.01
56160;BME280;42043;46.052;13.612;2022-08-05T00:15:51;100489.06;;;24.15;83.25
56160;BME280;42043;46.052;13.612;2022-08-05T00:18:17;100480.59;;;23.96;84.33
56160;BME280;42043;46.052;13.612;2022-08-05T00:20:43;100490.59;;;23.48;87.97
56160;BME280;42043;46.052;13.612;2022-08-05T00:23:09;100485.22;;;22.61;93.90
56160;BME280;42043;46.052;13.612;2022-08-05T00:25:35;100479.72;;;23.85;85.91
56160;BME280;42043;46.052;13.612;2022-08-05T00:28:01;100480.50;;;23.01;90.25
56160;BME280;42043;46.052;13.612;2022-08-05T00:30:26;100472.97;;;23.40;88.65
56160;BME280;42043;46.052;13.612;2022-08-05T00:32:52;100474.28;;;23.75;85.89
56160;BME280;42043;46.052;13.612;2022-08-05T00:35:18;100471.47;;;23.60;87.30
56160;BME280;42043;46.052;13.612;2022-08-05T00:37:44;100475.59;;;22.71;93.59
56160;BME280;42043;46.052;13.612;2022-08-05T00:40:11;100463.06;;;23.14;90.78
56160;BME280;42043;46.052;13.612;2022-08-05T00:42:37;100468.97;;;23.91;85.97
56160;BME280;42043;46.052;13.612;2022-08-05T00:45:07;100459.75;;;23.86;85.97
56160;BME280;42043;46.052;13.612;2022-08-05T00:47:34;100460.00;;;23.80;86.60
56160;BME280;42043;46.052;13.612;2022-08-05T00:50:00;100465.25;;;22.90;91.44
56160;BME280;42043;46.052;13.612;2022-08-05T00:52:26;100457.94;;;22.31;92.90
56160;BME280;42043;46.052;13.612;2022-08-05T00:54:52;100456.97;;;22.96;89.11
56160;BME280;42043;46.052;13.612;2022-08-05T00:57:18;100455.41;;;23.43;87.19
56160;BME280;42043;46.052;13.612;2022-08-05T00:59:44;100448.00;;;23.23;86.76
56160;BME280;42043;46.052;13.612;2022-08-05T01:02:10;100443.44;;;23.29;87.93
56160;BME280;42043;46.052;13.612;2022-08-05T01:04:36;100445.25;;;22.86;90.04
56160;BME280;42043;46.052;13.612;2022-08-05T01:07:02;100446.53;;;22.78;90.51
56160;BME280;42043;46.052;13.612;2022-08-05T01:09:28;100447.84;;;22.48;93.51
56160;BME280;42043;46.052;13.612;2022-08-05T01:11:58;100448.91;;;22.42;95.33
56160;BME280;42043;46.052;13.612;2022-08-05T01:14:31;100447.56;;;22.72;93.76
56160;BME280;42043;46.052;13.612;2022-08-05T01:17:02;100449.66;;;22.97;91.10
56160;BME280;42043;46.052;13.612;2022-08-05T01:19:34;100454.59;;;23.37;88.39
56160;BME280;42043;46.052;13.612;2022-08-05T01:29:46;100443.75;;;23.32;89.29
56160;BME280;42043;46.052;13.612;2022-08-05T01:32:16;100439.00;;;22.53;93.18
56160;BME280;42043;46.052;13.612;2022-08-05T01:34:44;100446.81;;;23.09;90.25
56160;BME280;42043;46.052;13.612;2022-08-05T01:37:18;100447.16;;;22.58;92.50
56160;BME280;42043;46.052;13.612;2022-08-05T01:39:48;100444.88;;;23.36;87.33
56160;BME280;42043;46.052;13.612;2022-08-05T01:42:18;100443.53;;;23.39;87.62
56160;BME280;42043;46.052;13.612;2022-08-05T01:44:46;100441.91;;;22.46;94.03
56160;BME280;42043;46.052;13.612;2022-08-05T01:47:16;100439.66;;;22.92;91.25
56160;BME280;42043;46.052;13.612;2022-08-05T01:49:44;100436.09;;;23.19;90.17
56160;BME280;42043;46.052;13.612;2022-08-05T01:52:12;100434.69;;;23.49;88.02
56160;BME280;42043;46.052;13.612;2022-08-05T01:54:45;100443.34;;;22.54;92.98
56160;BME280;42043;46.052;13.612;2022-08-05T01:57:17;100443.38;;;22.32;95.49
56160;BME280;42043;46.052;13.612;2022-08-05T01:59:46;100429.50;;;23.04;90.63
56160;BME280;42043;46.052;13.612;2022-08-05T02:02:14;100444.53;;;22.95;90.37
56160;BME280;42043;46.052;13.612;2022-08-05T02:04:42;100437.69;;;23.15;90.29
56160;BME280;42043;46.052;13.612;2022-08-05T02:07:09;100427.84;;;22.98;90.48
56160;BME280;42043;46.052;13.612;2022-08-05T02:09:36;100434.81;;;22.35;94.18
56160;BME280;42043;46.052;13.612;2022-08-05T02:12:07;100439.38;;;22.61;92.95
56160;BME280;42043;46.052;13.612;2022-08-05T02:14:47;100438.78;;;22.10;96.38
56160;BME280;42043;46.052;13.612;2022-08-05T02:17:22;100440.81;;;21.98;97.99
56160;BME280;42043;46.052;13.612;2022-08-05T02:19:52;100447.41;;;21.68;100.00
56160;BME280;42043;46.052;13.612;2022-08-05T02:22:27;100438.53;;;22.88;92.23
56160;BME280;42043;46.052;13.612;2022-08-05T02:25:02;100435.25;;;22.86;92.13
56160;BME280;42043;46.052;13.612;2022-08-05T02:27:33;100438.78;;;22.10;97.20
56160;BME280;42043;46.052;13.612;2022-08-05T02:30:00;100435.56;;;22.30;96.10
56160;BME280;42043;46.052;13.612;2022-08-05T02:32:28;100433.13;;;22.88;92.13
56160;BME280;42043;46.052;13.612;2022-08-05T02:35:01;100433.47;;;22.15;96.36
56160;BME280;42043;46.052;13.612;2022-08-05T02:37:29;100431.31;;;22.94;91.02
56160;BME280;42043;46.052;13.612;2022-08-05T02:40:00;100430.78;;;21.71;99.21
56160;BME280;42043;46.052;13.612;2022-08-05T02:42:26;100423.75;;;22.36;94.80
56160;BME280;42043;46.052;13.612;2022-08-05T02:44:54;100436.53;;;21.58;100.00
56160;BME280;42043;46.052;13.612;2022-08-05T02:47:22;100432.97;;;21.96;98.22
56160;BME280;42043;46.052;13.612;2022-08-05T02:49:49;100420.66;;;21.78;99.17
56160;BME280;42043;46.052;13.612;2022-08-05T02:52:17;100426.53;;;21.97;98.63
56160;BME280;42043;46.052;13.612;2022-08-05T02:54:44;100420.69;;;22.06;98.23
56160;BME280;42043;46.052;13.612;2022-08-05T02:57:16;100420.50;;;22.12;96.86
56160;BME280;42043;46.052;13.612;2022-08-05T02:59:46;100420.66;;;21.78;100.00
56160;BME280;42043;46.052;13.612;2022-08-05T03:02:14;100420.41;;;22.51;95.00
56160;BME280;42043;46.052;13.612;2022-08-05T03:04:42;100412.41;;;22.34;95.11
56160;BME280;42043;46.052;13.612;2022-08-05T03:07:09;100412.00;;;22.48;94.63
56160;BME280;42043;46.052;13.612;2022-08-05T03:09:35;100409.59;;;22.24;95.54
56160;BME280;42043;46.052;13.612;2022-08-05T03:12:02;100422.41;;;21.51;100.00
56160;BME280;42043;46.052;13.612;2022-08-05T03:14:29;100416.38;;;22.05;98.56
56160;BME280;42043;46.052;13.612;2022-08-05T03:16:55;100416.69;;;21.64;100.00
56160;BME280;42043;46.052;13.612;2022-08-05T03:19:21;100421.84;;;22.37;96.03
56160;BME280;42043;46.052;13.612;2022-08-05T03:21:47;100416.25;;;22.16;96.92
56160;BME280;42043;46.052;13.612;2022-08-05T03:24:13;100413.41;;;22.55;94.77
56160;BME280;42043;46.052;13.612;2022-08-05T03:26:40;100419.41;;;22.13;96.96
56160;BME280;42043;46.052;13.612;2022-08-05T03:29:06;100425.22;;;22.00;97.81
56160;BME280;42043;46.052;13.612;2022-08-05T03:31:32;100418.34;;;22.36;95.62
56160;BME280;42043;46.052;13.612;2022-08-05T03:33:58;100414.38;;;21.95;98.00
56160;BME280;42043;46.052;13.612;2022-08-05T03:36:24;100427.00;;;21.72;99.86
56160;BME280;42043;46.052;13.612;2022-08-05T03:38:51;100422.13;;;21.91;98.33
56160;BME280;42043;46.052;13.612;2022-08-05T03:41:17;100421.00;;;22.09;97.75
56160;BME280;42043;46.052;13.612;2022-08-05T03:43:43;100428.09;;;22.37;95.63
56160;BME280;42043;46.052;13.612;2022-08-05T03:46:09;100423.13;;;21.63;100.00
56160;BME280;42043;46.052;13.612;2022-08-05T03:48:35;100425.88;;;21.68;99.98
56160;BME280;42043;46.052;13.612;2022-08-05T03:51:25;100418.00;;;21.84;98.25
56160;BME280;42043;46.052;13.612;2022-08-05T03:54:22;100425.28;;;21.83;99.16
56160;BME280;42043;46.052;13.612;2022-08-05T03:56:54;100429.91;;;21.88;99.93
56160;BME280;42043;46.052;13.612;2022-08-05T03:59:27;100424.38;;;21.77;99.96
56160;BME280;42043;46.052;13.612;2022-08-05T04:01:57;100429.34;;;22.08;98.44
56160;BME280;42043;46.052;13.612;2022-08-05T04:04:25;100429.78;;;22.49;95.30
56160;BME280;42043;46.052;13.612;2022-08-05T04:06:52;100422.63;;;22.10;97.97
56160;BME280;42043;46.052;13.612;2022-08-05T04:09:18;100427.19;;;22.32;96.74
56160;BME280;42043;46.052;13.612;2022-08-05T04:11:44;100429.28;;;21.81;99.98
56160;BME280;42043;46.052;13.612;2022-08-05T04:14:10;100442.78;;;21.64;100.00
56160;BME280;42043;46.052;13.612;2022-08-05T04:16:37;100436.34;;;21.87;99.40
56160;BME280;42043;46.052;13.612;2022-08-05T04:19:03;100433.09;;;22.56;95.12
56160;BME280;42043;46.052;13.612;2022-08-05T04:21:29;100435.28;;;21.66;100.00
56160;BME280;42043;46.052;13.612;2022-08-05T04:23:56;100432.22;;;21.79;100.00
56160;BME280;42043;46.052;13.612;2022-08-05T04:26:25;100441.34;;;21.56;100.00
56160;BME280;42043;46.052;13.612;2022-08-05T04:28:51;100434.78;;;21.91;100.00
56160;BME280;42043;46.052;13.612;2022-08-05T04:31:17;100436.41;;;22.36;95.99
56160;BME280;42043;46.052;13.612;2022-08-05T04:33:43;100434.78;;;21.69;100.00
56160;BME280;42043;46.052;13.612;2022-08-05T04:36:09;100438.47;;;21.63;100.00
56160;BME280;42043;46.052;13.612;2022-08-05T04:38:35;100438.28;;;21.69;100.00
56160;BME280;42043;46.052;13.612;2022-08-05T04:41:02;100437.41;;;22.30;98.29
56160;BME280;42043;46.052;13.612;2022-08-05T04:43:28;100427.25;;;22.37;97.02
56160;BME280;42043;46.052;13.612;2022-08-05T04:45:54;100430.78;;;21.71;100.00
56160;BME280;42043;46.052;13.612;2022-08-05T04:48:20;100445.34;;;21.75;100.00
56160;BME280;42043;46.052;13.612;2022-08-05T04:50:47;100428.97;;;21.77;100.00
56160;BME280;42043;46.052;13.612;2022-08-05T04:53:15;100431.41;;;22.45;97.94
56160;BME280;42043;46.052;13.612;2022-08-05T04:55:42;100433.63;;;22.26;98.75
56160;BME280;42043;46.052;13.612;2022-08-05T04:58:11;100441.31;;;22.17;98.19
56160;BME280;42043;46.052;13.612;2022-08-05T05:00:38;100436.56;;;22.24;97.74
56160;BME280;42043;46.052;13.612;2022-08-05T05:03:05;100437.63;;;22.50;96.62
56160;BME280;42043;46.052;13.612;2022-08-05T05:05:32;100438.34;;;22.40;97.64
56160;BME280;42043;46.052;13.612;2022-08-05T05:08:01;100437.75;;;22.33;97.71
56160;BME280;42043;46.052;13.612;2022-08-05T05:10:31;100435.66;;;22.40;98.45
56160;BME280;42043;46.052;13.612;2022-08-05T05:12:57;100430.25;;;22.68;95.56
56160;BME280;42043;46.052;13.612;2022-08-05T05:15:24;100428.41;;;22.46;96.59
56160;BME280;42043;46.052;13.612;2022-08-05T05:17:51;100430.31;;;22.46;96.56
56160;BME280;42043;46.052;13.612;2022-08-05T05:20:17;100429.16;;;23.33;90.60
56160;BME280;42043;46.052;13.612;2022-08-05T05:22:43;100421.63;;;22.66;96.28
56160;BME280;42043;46.052;13.612;2022-08-05T05:25:12;100418.72;;;23.04;93.69
56160;BME280;42043;46.052;13.612;2022-08-05T05:27:39;100433.53;;;23.02;93.91
56160;BME280;42043;46.052;13.612;2022-08-05T05:30:05;100428.97;;;23.45;91.26
56160;BME280;42043;46.052;13.612;2022-08-05T05:32:32;100424.94;;;23.48;90.50
56160;BME280;42043;46.052;13.612;2022-08-05T05:34:58;100430.41;;;23.58;89.98
56160;BME280;42043;46.052;13.612;2022-08-05T05:37:24;100432.38;;;23.25;92.51
56160;BME280;42043;46.052;13.612;2022-08-05T05:39:50;100427.91;;;23.46;90.13
56160;BME280;42043;46.052;13.612;2022-08-05T05:42:16;100421.47;;;24.05;86.79
56160;BME280;42043;46.052;13.612;2022-08-05T05:44:42;100415.72;;;23.91;87.42
56160;BME280;42043;46.052;13.612;2022-08-05T05:47:08;100413.69;;;23.66;88.19
56160;BME280;42043;46.052;13.612;2022-08-05T05:49:34;100417.31;;;23.34;89.45
56160;BME280;42043;46.052;13.612;2022-08-05T05:52:00;100408.31;;;23.71;87.87
56160;BME280;42043;46.052;13.612;2022-08-05T05:54:26;100406.69;;;23.70;86.27
56160;BME280;42043;46.052;13.612;2022-08-05T05:56:52;100408.63;;;23.75;86.95
56160;BME280;42043;46.052;13.612;2022-08-05T05:59:18;100417.75;;;23.68;86.87
56160;BME280;42043;46.052;13.612;2022-08-05T06:01:44;100414.31;;;23.83;85.43
56160;BME280;42043;46.052;13.612;2022-08-05T06:04:12;100413.66;;;24.24;83.41
56160;BME280;42043;46.052;13.612;2022-08-05T06:06:43;100410.97;;;24.24;83.55
56160;BME280;42043;46.052;13.612;2022-08-05T06:09:09;100407.16;;;24.25;83.78
56160;BME280;42043;46.052;13.612;2022-08-05T06:11:36;100409.69;;;24.67;81.55
56160;BME280;42043;46.052;13.612;2022-08-05T06:14:02;100406.97;;;24.47;82.57
56160;BME280;42043;46.052;13.612;2022-08-05T06:16:28;100411.84;;;24.60;80.69
56160;BME280;42043;46.052;13.612;2022-08-05T06:18:54;100402.63;;;24.61;81.35
56160;BME280;42043;46.052;13.612;2022-08-05T06:21:20;100413.19;;;24.63;81.70
56160;BME280;42043;46.052;13.612;2022-08-05T06:23:46;100404.75;;;24.44;81.50
56160;BME280;42043;46.052;13.612;2022-08-05T06:26:12;100408.09;;;24.66;81.11
56160;BME280;42043;46.052;13.612;2022-08-05T06:28:38;100411.59;;;24.62;80.95
56160;BME280;42043;46.052;13.612;2022-08-05T06:31:04;100407.00;;;24.62;80.42
56160;BME280;42043;46.052;13.612;2022-08-05T06:33:30;100408.59;;;25.20;77.48
56160;BME280;42043;46.052;13.612;2022-08-05T06:35:56;100410.75;;;25.38;77.23
56160;BME280;42043;46.052;13.612;2022-08-05T06:38:22;100402.63;;;25.23;77.11
56160;BME280;42043;46.052;13.612;2022-08-05T06:40:48;100406.41;;;25.32;76.64
56160;BME280;42043;46.052;13.612;2022-08-05T06:43:14;100401.53;;;25.34;77.16
56160;BME280;42043;46.052;13.612;2022-08-05T06:45:40;100403.66;;;25.52;75.27
56160;BME280;42043;46.052;13.612;2022-08-05T06:48:06;100413.38;;;25.53;75.80
56160;BME280;42043;46.052;13.612;2022-08-05T06:50:32;100413.31;;;25.79;75.01
56160;BME280;42043;46.052;13.612;2022-08-05T06:52:58;100396.22;;;25.84;74.28
56160;BME280;42043;46.052;13.612;2022-08-05T06:55:25;100395.50;;;25.58;73.76
56160;BME280;42043;46.052;13.612;2022-08-05T06:57:50;100396.41;;;26.03;71.83
56160;BME280;42043;46.052;13.612;2022-08-05T07:00:17;100399.34;;;26.11;71.40
56160;BME280;42043;46.052;13.612;2022-08-05T07:02:44;100395.81;;;26.16;71.20
56160;BME280;42043;46.052;13.612;2022-08-05T07:05:11;100391.88;;;26.37;71.30
56160;BME280;42043;46.052;13.612;2022-08-05T07:07:37;100399.06;;;26.57;69.02
56160;BME280;42043;46.052;13.612;2022-08-05T07:10:05;100386.88;;;26.55;69.72
56160;BME280;42043;46.052;13.612;2022-08-05T07:12:31;100401.63;;;26.78;69.70
56160;BME280;42043;46.052;13.612;2022-08-05T07:15:15;100392.69;;;26.77;69.46
56160;BME280;42043;46.052;13.612;2022-08-05T07:18:00;100381.53;;;27.08;66.14
56160;BME280;42043;46.052;13.612;2022-08-05T07:20:26;100382.72;;;26.97;66.40
56160;BME280;42043;46.052;13.612;2022-08-05T07:22:52;100384.28;;;27.32;65.05
56160;BME280;42043;46.052;13.612;2022-08-05T07:25:18;100383.94;;;27.39;64.29
56160;BME280;42043;46.052;13.612;2022-08-05T07:27:44;100378.50;;;27.39;64.45
56160;BME280;42043;46.052;13.612;2022-08-05T07:30:10;100370.03;;;27.16;65.06
56160;BME280;42043;46.052;13.612;2022-08-05T07:32:37;100367.16;;;27.56;63.98
56160;BME280;42043;46.052;13.612;2022-08-05T07:35:07;100363.00;;;27.88;61.16
56160;BME280;42043;46.052;13.612;2022-08-05T07:37:34;100373.22;;;28.15;64.39
56160;BME280;42043;46.052;13.612;2022-08-05T07:40:00;100358.88;;;28.28;61.12
56160;BME280;42043;46.052;13.612;2022-08-05T07:42:25;100368.03;;;28.51;59.40
56160;BME280;42043;46.052;13.612;2022-08-05T07:44:51;100362.66;;;28.65;57.86
56160;BME280;42043;46.052;13.612;2022-08-05T07:47:18;100362.81;;;28.87;57.51
56160;BME280;42043;46.052;13.612;2022-08-05T07:49:44;100359.38;;;28.96;57.71
56160;BME280;42043;46.052;13.612;2022-08-05T07:52:10;100366.97;;;28.99;56.57
56160;BME280;42043;46.052;13.612;2022-08-05T07:54:36;100364.09;;;29.09;56.17
56160;BME280;42043;46.052;13.612;2022-08-05T07:57:02;100354.84;;;29.05;54.20
56160;BME280;42043;46.052;13.612;2022-08-05T07:59:29;100353.78;;;29.47;52.38
56160;BME280;42043;46.052;13.612;2022-08-05T08:01:55;100354.50;;;29.53;52.67
56160;BME280;42043;46.052;13.612;2022-08-05T08:04:21;100354.44;;;29.94;50.45
56160;BME280;42043;46.052;13.612;2022-08-05T08:06:47;100368.19;;;29.89;49.10
56160;BME280;42043;46.052;13.612;2022-08-05T08:09:13;100350.97;;;30.39;48.69
56160;BME280;42043;46.052;13.612;2022-08-05T08:11:39;100351.34;;;30.69;48.68
56160;BME280;42043;46.052;13.612;2022-08-05T08:14:05;100349.56;;;30.73;47.51
56160;BME280;42043;46.052;13.612;2022-08-05T08:16:31;100347.84;;;30.77;46.96
56160;BME280;42043;46.052;13.612;2022-08-05T08:18:57;100347.03;;;30.76;46.09
56160;BME280;42043;46.052;13.612;2022-08-05T08:21:23;100341.53;;;30.99;45.99
56160;BME280;42043;46.052;13.612;2022-08-05T08:23:49;100342.72;;;31.07;45.21
56160;BME280;42043;46.052;13.612;2022-08-05T08:26:15;100330.56;;;31.30;45.63
56160;BME280;42043;46.052;13.612;2022-08-05T08:28:41;100342.25;;;31.71;44.88
56160;BME280;42043;46.052;13.612;2022-08-05T08:31:08;100328.94;;;31.95;42.85
56160;BME280;42043;46.052;13.612;2022-08-05T08:33:34;100317.31;;;32.33;42.36
56160;BME280;42043;46.052;13.612;2022-08-05T08:36:00;100331.19;;;32.28;43.38
56160;BME280;42043;46.052;13.612;2022-08-05T08:38:26;100325.34;;;32.38;42.79
56160;BME280;42043;46.052;13.612;2022-08-05T08:40:52;100323.91;;;32.58;42.15
56160;BME280;42043;46.052;13.612;2022-08-05T08:43:19;100326.84;;;32.01;42.63
56160;BME280;42043;46.052;13.612;2022-08-05T08:45:48;100316.78;;;32.75;43.36
56160;BME280;42043;46.052;13.612;2022-08-05T08:48:15;100318.22;;;33.40;40.49
56160;BME280;42043;46.052;13.612;2022-08-05T08:50:43;100310.63;;;33.16;38.77
56160;BME280;42043;46.052;13.612;2022-08-05T08:53:11;100316.41;;;33.23;38.33
56160;BME280;42043;46.052;13.612;2022-08-05T08:55:40;100309.59;;;33.80;37.21
56160;BME280;42043;46.052;13.612;2022-08-05T08:58:07;100321.78;;;33.91;36.91
56160;BME280;42043;46.052;13.612;2022-08-05T09:00:33;100307.84;;;33.55;37.21
56160;BME280;42043;46.052;13.612;2022-08-05T09:02:59;100311.44;;;33.46;36.61
56160;BME280;42043;46.052;13.612;2022-08-05T09:05:26;100311.81;;;33.66;37.26
56160;BME280;42043;46.052;13.612;2022-08-05T09:07:52;100304.84;;;34.10;35.57
56160;BME280;42043;46.052;13.612;2022-08-05T09:10:21;100305.28;;;34.46;36.50
56160;BME280;42043;46.052;13.612;2022-08-05T09:12:47;100309.00;;;34.17;35.72
56160;BME280;42043;46.052;13.612;2022-08-05T09:15:14;100306.66;;;34.73;34.83
56160;BME280;42043;46.052;13.612;2022-08-05T09:17:40;100306.34;;;34.53;34.95
56160;BME280;42043;46.052;13.612;2022-08-05T09:20:07;100296.06;;;34.17;34.96
56160;BME280;42043;46.052;13.612;2022-08-05T09:25:27;100301.84;;;34.36;34.13
56160;BME280;42043;46.052;13.612;2022-08-05T09:27:54;100293.38;;;35.24;33.62
56160;BME280;42043;46.052;13.612;2022-08-05T09:30:21;100305.63;;;34.77;33.97
56160;BME280;42043;46.052;13.612;2022-08-05T09:32:47;100307.22;;;34.78;33.53
56160;BME280;42043;46.052;13.612;2022-08-05T09:35:15;100298.84;;;34.29;34.18
56160;BME280;42043;46.052;13.612;2022-08-05T09:37:50;100291.78;;;34.41;34.21
56160;BME280;42043;46.052;13.612;2022-08-05T09:42:56;100289.13;;;35.39;33.38
56160;BME280;42043;46.052;13.612;2022-08-05T09:45:37;100280.03;;;35.38;32.40
56160;BME280;42043;46.052;13.612;2022-08-05T09:48:19;100272.59;;;35.51;32.30
56160;BME280;42043;46.052;13.612;2022-08-05T09:50:54;100281.44;;;35.85;32.82
56160;BME280;42043;46.052;13.612;2022-08-05T09:53:21;100286.25;;;34.98;33.25
56160;BME280;42043;46.052;13.612;2022-08-05T09:55:56;100267.91;;;35.39;32.64
56160;BME280;42043;46.052;13.612;2022-08-05T09:58:23;100282.81;;;35.02;32.20
56160;BME280;42043;46.052;13.612;2022-08-05T10:00:53;100274.22;;;35.28;31.77
56160;BME280;42043;46.052;13.612;2022-08-05T10:03:20;100269.50;;;35.81;31.18
56160;BME280;42043;46.052;13.612;2022-08-05T10:05:58;100267.72;;;35.73;31.54
56160;BME280;42043;46.052;13.612;2022-08-05T10:08:24;100272.44;;;36.29;30.63
56160;BME280;42043;46.052;13.612;2022-08-05T10:10:51;100267.91;;;36.36;31.23
56160;BME280;42043;46.052;13.612;2022-08-05T10:13:37;100265.72;;;36.58;30.62
56160;BME280;42043;46.052;13.612;2022-08-05T10:16:04;100253.81;;;37.05;29.55
56160;BME280;42043;46.052;13.612;2022-08-05T10:18:32;100263.66;;;36.71;30.08
56160;BME280;42043;46.052;13.612;2022-08-05T10:21:04;100253.34;;;35.27;31.15
56160;BME280;42043;46.052;13.612;2022-08-05T10:23:33;100263.97;;;36.37;30.63
56160;BME280;42043;46.052;13.612;2022-08-05T10:26:06;100259.00;;;36.27;30.69
56160;BME280;42043;46.052;13.612;2022-08-05T10:28:34;100251.94;;;36.58;30.35
56160;BME280;42043;46.052;13.612;2022-08-05T10:31:02;100267.19;;;36.39;30.94
56160;BME280;42043;46.052;13.612;2022-08-05T10:33:31;100253.50;;;36.91;30.00
56160;BME280;42043;46.052;13.612;2022-08-05T10:35:59;100251.75;;;37.18;29.54
56160;BME280;42043;46.052;13.612;2022-08-05T10:38:27;100245.84;;;37.00;28.97
56160;BME280;42043;46.052;13.612;2022-08-05T10:41:03;100245.69;;;36.93;29.25
56160;BME280;42043;46.052;13.612;2022-08-05T10:43:42;100245.66;;;37.83;28.98
56160;BME280;42043;46.052;13.612;2022-08-05T10:46:16;100254.91;;;37.71;28.67
56160;BME280;42043;46.052;13.612;2022-08-05T10:53:44;100254.75;;;37.64;28.64
56160;BME280;42043;46.052;13.612;2022-08-05T10:56:25;100249.53;;;37.59;28.12
56160;BME280;42043;46.052;13.612;2022-08-05T11:01:40;100247.25;;;37.10;29.05
56160;BME280;42043;46.052;13.612;2022-08-05T11:04:11;100249.22;;;38.26;27.66
56160;BME280;42043;46.052;13.612;2022-08-05T11:09:28;100237.78;;;37.46;28.14
56160;BME280;42043;46.052;13.612;2022-08-05T11:12:01;100235.44;;;37.64;28.14
56160;BME280;42043;46.052;13.612;2022-08-05T11:14:30;100236.56;;;38.02;28.18
56160;BME280;42043;46.052;13.612;2022-08-05T11:19:50;100231.53;;;38.30;27.56
56160;BME280;42043;46.052;13.612;2022-08-05T11:22:56;100233.59;;;38.57;26.82
56160;BME280;42043;46.052;13.612;2022-08-05T11:25:38;100238.03;;;38.65;26.86
56160;BME280;42043;46.052;13.612;2022-08-05T11:33:27;100210.00;;;38.17;27.83
56160;BME280;42043;46.052;13.612;2022-08-05T11:36:01;100211.19;;;39.49;26.24
56160;BME280;42043;46.052;13.612;2022-08-05T11:41:25;100223.22;;;38.76;26.25
56160;BME280;42043;46.052;13.612;2022-08-05T11:43:57;100232.16;;;38.43;26.80
56160;BME280;42043;46.052;13.612;2022-08-05T11:46:33;100221.63;;;38.29;26.99
56160;BME280;42043;46.052;13.612;2022-08-05T11:49:00;100216.56;;;38.54;27.25
56160;BME280;42043;46.052;13.612;2022-08-05T11:51:28;100229.34;;;39.16;26.65
56160;BME280;42043;46.052;13.612;2022-08-05T11:53:55;100216.81;;;39.26;26.57
56160;BME280;42043;46.052;13.612;2022-08-05T11:56:22;100212.00;;;39.49;25.84
56160;BME280;42043;46.052;13.612;2022-08-05T11:58:49;100206.28;;;39.69;25.36
56160;BME280;42043;46.052;13.612;2022-08-05T12:01:20;100201.03;;;38.96;26.57
56160;BME280;42043;46.052;13.612;2022-08-05T12:03:49;100210.66;;;40.07;25.06
56160;BME280;42043;46.052;13.612;2022-08-05T12:06:18;100202.50;;;39.84;24.87
56160;BME280;42043;46.052;13.612;2022-08-05T12:08:49;100204.22;;;40.92;24.79
56160;BME280;42043;46.052;13.612;2022-08-05T12:11:22;100190.47;;;40.58;24.37
56160;BME280;42043;46.052;13.612;2022-08-05T12:16:21;100188.63;;;41.46;23.24
56160;BME280;42043;46.052;13.612;2022-08-05T12:18:48;100201.47;;;40.44;24.42
56160;BME280;42043;46.052;13.612;2022-08-05T12:21:35;100197.84;;;40.88;23.71
56160;BME280;42043;46.052;13.612;2022-08-05T12:26:31;100205.59;;;41.27;24.97
56160;BME280;42043;46.052;13.612;2022-08-05T12:28:58;100201.16;;;40.08;25.38
56160;BME280;42043;46.052;13.612;2022-08-05T12:31:24;100190.13;;;40.15;24.13
56160;BME280;42043;46.052;13.612;2022-08-05T12:33:52;100193.47;;;41.67;23.08
56160;BME280;42043;46.052;13.612;2022-08-05T12:36:20;100179.63;;;42.18;22.67
56160;BME280;42043;46.052;13.612;2022-08-05T12:38:46;100183.19;;;42.18;22.12
56160;BME280;42043;46.052;13.612;2022-08-05T12:41:13;100194.31;;;42.33;22.84
56160;BME280;42043;46.052;13.612;2022-08-05T12:43:54;100178.56;;;41.17;23.47
56160;BME280;42043;46.052;13.612;2022-08-05T12:46:26;100177.63;;;42.00;23.11
56160;BME280;42043;46.052;13.612;2022-08-05T12:49:12;100175.22;;;41.77;23.40
56160;BME280;42043;46.052;13.612;2022-08-05T12:51:58;100180.84;;;42.53;21.77
56160;BME280;42043;46.052;13.612;2022-08-05T12:54:29;100180.03;;;42.02;22.94
56160;BME280;42043;46.052;13.612;2022-08-05T12:56:58;100176.19;;;41.15;23.57
56160;BME280;42043;46.052;13.612;2022-08-05T12:59:30;100171.06;;;41.24;24.10
56160;BME280;42043;46.052;13.612;2022-08-05T13:02:02;100166.84;;;41.59;24.01
56160;BME280;42043;46.052;13.612;2022-08-05T13:04:31;100165.44;;;41.10;23.72
56160;BME280;42043;46.052;13.612;2022-08-05T13:06:59;100159.94;;;41.17;23.46
56160;BME280;42043;46.052;13.612;2022-08-05T13:09:27;100169.69;;;42.02;23.51
56160;BME280;42043;46.052;13.612;2022-08-05T13:12:07;100171.03;;;41.14;24.18
56160;BME280;42043;46.052;13.612;2022-08-05T13:15:00;100161.97;;;41.28;23.93
56160;BME280;42043;46.052;13.612;2022-08-05T13:17:28;100166.53;;;42.43;22.85
56160;BME280;42043;46.052;13.612;2022-08-05T13:20:02;100156.97;;;41.98;23.14
56160;BME280;42043;46.052;13.612;2022-08-05T13:22:31;100155.19;;;41.21;24.28
56160;BME280;42043;46.052;13.612;2022-08-05T13:25:00;100146.66;;;42.48;22.37
56160;BME280;42043;46.052;13.612;2022-08-05T13:27:35;100148.81;;;43.29;21.68